Time;durP1;ratioP1;P1;durP2;ratioP2;P2;SDS_P1;SDS_P2;PMS_P1;PMS_P2;Temp;Humidity;BMP_temperature;BMP_pressure;BME280_temperature;BME280_humidity;BME280_pressure;Samples;Min_cycle;Max_cycle;Signal;HPM_P1;HPM_P2
2022/02/25 00:00:24;;;;;;;2.73;1.40;;;5.20;99.90;;;;;;4984391;28;20221;-78
2022/02/25 00:02:49;;;;;;;2.90;0.90;;;5.20;99.90;;;;;;4988789;28;20183;-78
2022/02/25 00:05:15;;;;;;;3.50;0.93;;;5.10;99.90;;;;;;4985469;28;20674;-79
2022/02/25 00:07:41;;;;;;;2.95;1.20;;;5.20;99.90;;;;;;4981046;28;20186;-79
2022/02/25 00:10:07;;;;;;;2.03;1.20;;;5.10;99.90;;;;;;4966057;28;20289;-78
2022/02/25 00:12:33;;;;;;;2.72;1.00;;;5.10;99.90;;;;;;4986606;28;20551;-78
2022/02/25 00:15:00;;;;;;;3.77;1.40;;;5.10;99.90;;;;;;4985489;28;20184;-78
2022/02/25 00:17:26;;;;;;;3.63;1.42;;;5.10;99.90;;;;;;4985388;28;21483;-79
2022/02/25 00:19:52;;;;;;;1.93;0.80;;;5.10;99.90;;;;;;4985719;28;20286;-79
2022/02/25 00:22:18;;;;;;;6.33;1.40;;;5.10;99.90;;;;;;4985972;28;20179;-78
2022/02/25 00:24:43;;;;;;;4.80;1.03;;;5.10;99.90;;;;;;4982310;28;20207;-78
2022/02/25 00:27:09;;;;;;;6.63;0.90;;;5.10;99.90;;;;;;4983581;28;20183;-78
2022/02/25 00:29:34;;;;;;;6.23;1.20;;;5.00;99.90;;;;;;4980978;28;20199;-79
2022/02/25 00:32:00;;;;;;;5.10;1.10;;;5.00;99.90;;;;;;4983578;28;20294;-79
2022/02/25 00:34:26;;;;;;;5.80;1.15;;;5.10;99.90;;;;;;4990747;28;20179;-78
2022/02/25 00:36:52;;;;;;;2.20;0.80;;;5.10;99.90;;;;;;4984037;28;20623;-78
2022/02/25 00:39:17;;;;;;;3.70;1.10;;;5.00;99.90;;;;;;4987389;28;20221;-78
2022/02/25 00:41:43;;;;;;;4.80;1.00;;;5.00;99.90;;;;;;4967057;28;20254;-78
2022/02/25 00:44:09;;;;;;;2.60;0.80;;;5.00;99.90;;;;;;4982358;28;20199;-78
2022/02/25 00:46:34;;;;;;;1.83;0.93;;;5.10;99.90;;;;;;4983082;28;20202;-78
2022/02/25 00:49:00;;;;;;;3.70;0.90;;;5.10;99.90;;;;;;4982196;28;20532;-78
2022/02/25 00:51:27;;;;;;;2.85;0.90;;;5.00;99.90;;;;;;4963846;28;20218;-78
2022/02/25 00:53:53;;;;;;;2.47;1.10;;;5.10;99.90;;;;;;4983099;28;20185;-78
2022/02/25 00:56:21;;;;;;;5.63;1.20;;;5.10;99.90;;;;;;4983311;28;20179;-78
2022/02/25 00:58:47;;;;;;;4.28;1.00;;;5.00;99.90;;;;;;4981008;28;20187;-78
2022/02/25 01:01:14;;;;;;;3.83;0.80;;;5.10;99.90;;;;;;4982352;28;20225;-79
2022/02/25 01:03:40;;;;;;;2.85;0.95;;;5.00;99.90;;;;;;4983222;28;20273;-79
2022/02/25 01:06:06;;;;;;;3.90;1.10;;;5.10;99.90;;;;;;4983711;28;20637;-79
2022/02/25 01:08:32;;;;;;;2.00;1.23;;;5.10;99.90;;;;;;4980007;28;20242;-79
2022/02/25 01:10:58;;;;;;;3.10;0.70;;;5.00;99.90;;;;;;4986548;28;20206;-78
2022/02/25 01:13:24;;;;;;;1.60;0.80;;;5.10;99.90;;;;;;4980262;28;20622;-79
2022/02/25 01:15:49;;;;;;;6.07;1.10;;;5.10;99.90;;;;;;4965558;28;20579;-78
2022/02/25 01:18:15;;;;;;;2.80;0.90;;;5.10;99.90;;;;;;4965247;28;20172;-79
2022/02/25 01:20:41;;;;;;;2.67;1.10;;;5.00;99.90;;;;;;4964019;28;20338;-79
2022/02/25 01:23:07;;;;;;;2.58;1.20;;;5.10;99.90;;;;;;4983553;28;21004;-79
2022/02/25 01:25:35;;;;;;;1.67;0.90;;;5.10;99.90;;;;;;4980227;28;20572;-79
2022/02/25 01:28:00;;;;;;;2.15;1.23;;;5.10;99.90;;;;;;4983484;28;20183;-79
2022/02/25 01:30:26;;;;;;;3.73;1.10;;;5.00;99.90;;;;;;4981205;28;20211;-80
2022/02/25 01:32:52;;;;;;;3.37;0.90;;;5.10;99.90;;;;;;4982292;28;20574;-79
2022/02/25 01:35:18;;;;;;;4.23;1.23;;;5.10;99.90;;;;;;4982036;28;20179;-80
2022/02/25 01:37:44;;;;;;;2.97;1.10;;;5.10;99.90;;;;;;4979967;28;20175;-79
2022/02/25 01:40:10;;;;;;;5.45;0.95;;;5.10;99.90;;;;;;4983495;28;20203;-80
2022/02/25 01:42:46;;;;;;;2.42;0.80;;;5.10;99.90;;;;;;4979999;28;20187;-79
2022/02/25 01:45:12;;;;;;;3.38;1.10;;;5.10;99.90;;;;;;4982605;28;20624;-80
2022/02/25 01:47:38;;;;;;;7.37;2.00;;;5.10;99.90;;;;;;4967147;28;20186;-79
2022/02/25 01:50:04;;;;;;;5.15;1.08;;;5.10;99.90;;;;;;4983361;28;20230;-80
2022/02/25 01:52:31;;;;;;;2.65;1.00;;;5.10;99.90;;;;;;4980457;28;20206;-79
2022/02/25 01:54:56;;;;;;;4.43;1.60;;;5.10;99.90;;;;;;4983023;28;20198;-80
2022/02/25 01:57:22;;;;;;;2.30;1.30;;;5.10;99.90;;;;;;4979838;28;20206;-79
2022/02/25 01:59:48;;;;;;;4.57;1.30;;;5.10;99.90;;;;;;4981469;28;20203;-79
2022/02/25 02:02:13;;;;;;;4.10;2.10;;;5.10;99.90;;;;;;4997055;28;20198;-80
2022/02/25 02:04:40;;;;;;;3.35;1.30;;;5.00;99.90;;;;;;4986323;28;20184;-79
2022/02/25 02:07:08;;;;;;;2.87;1.20;;;5.00;99.90;;;;;;4988376;28;20650;-79
2022/02/25 02:09:34;;;;;;;3.72;1.20;;;5.00;99.90;;;;;;4988093;28;20699;-79
2022/02/25 02:12:00;;;;;;;2.75;1.30;;;5.00;99.90;;;;;;4981977;28;20191;-79
2022/02/25 02:14:27;;;;;;;7.45;1.50;;;5.00;99.90;;;;;;4964967;28;20183;-80
2022/02/25 02:16:55;;;;;;;7.38;1.00;;;5.00;99.90;;;;;;4984154;28;20186;-80
2022/02/25 02:19:22;;;;;;;3.47;1.25;;;4.90;99.90;;;;;;4986695;28;20235;-79
2022/02/25 02:21:52;;;;;;;3.88;1.50;;;5.00;99.90;;;;;;4980311;28;20707;-79
2022/02/25 02:24:19;;;;;;;3.90;1.75;;;4.90;99.90;;;;;;4985077;28;20233;-78
2022/02/25 02:26:47;;;;;;;6.90;1.45;;;4.90;99.90;;;;;;4983472;28;20179;-79
2022/02/25 02:29:13;;;;;;;2.75;1.35;;;4.90;99.90;;;;;;4982871;28;20261;-78
2022/02/25 02:31:40;;;;;;;3.40;1.30;;;4.90;99.90;;;;;;4979574;28;20219;-79
2022/02/25 02:34:07;;;;;;;5.00;1.30;;;4.80;99.90;;;;;;4981877;28;20234;-79
2022/02/25 02:36:33;;;;;;;3.30;1.15;;;4.80;99.90;;;;;;4981148;28;20168;-79
2022/02/25 02:38:59;;;;;;;4.53;1.48;;;4.80;99.90;;;;;;4964076;28;20182;-79
2022/02/25 02:41:25;;;;;;;4.30;1.73;;;4.80;99.90;;;;;;4977951;28;20290;-78
2022/02/25 02:43:52;;;;;;;3.33;1.35;;;4.80;99.90;;;;;;4981688;28;20559;-78
2022/02/25 02:46:18;;;;;;;7.28;2.63;;;4.70;99.90;;;;;;4986990;28;20180;-78
2022/02/25 02:48:45;;;;;;;3.58;1.40;;;4.70;99.90;;;;;;4983004;28;20575;-78
2022/02/25 02:51:11;;;;;;;2.95;1.40;;;4.70;99.90;;;;;;4979120;28;20215;-78
2022/02/25 02:53:37;;;;;;;4.90;1.33;;;4.70;99.90;;;;;;4983155;28;20171;-78
2022/02/25 02:56:04;;;;;;;4.63;1.48;;;4.70;99.90;;;;;;4985573;28;20172;-79
2022/02/25 02:58:29;;;;;;;3.08;1.45;;;4.70;99.90;;;;;;4987523;28;20167;-79
2022/02/25 03:00:55;;;;;;;7.17;1.60;;;4.70;99.90;;;;;;4987591;28;20263;-79
2022/02/25 03:03:21;;;;;;;4.03;1.50;;;4.70;99.90;;;;;;4983272;28;20250;-79
2022/02/25 03:05:47;;;;;;;3.47;1.55;;;4.70;99.90;;;;;;4985732;28;20574;-79
2022/02/25 03:08:13;;;;;;;5.87;2.17;;;4.70;99.90;;;;;;4983132;28;20179;-79
2022/02/25 03:10:41;;;;;;;4.25;1.73;;;4.70;99.90;;;;;;4982512;28;20634;-79
2022/02/25 03:13:07;;;;;;;5.38;1.35;;;4.70;99.90;;;;;;4983785;28;20179;-79
2022/02/25 03:15:33;;;;;;;2.50;1.08;;;4.70;99.90;;;;;;4986273;28;20887;-79
2022/02/25 03:17:59;;;;;;;3.80;1.27;;;4.70;99.90;;;;;;4981803;28;20179;-79
2022/02/25 03:20:25;;;;;;;3.85;1.55;;;4.70;99.90;;;;;;4983689;28;20221;-79
2022/02/25 03:22:52;;;;;;;5.03;1.23;;;4.70;99.90;;;;;;4983978;28;20648;-79
2022/02/25 03:25:19;;;;;;;4.70;1.30;;;4.70;99.90;;;;;;4986681;28;20191;-79
2022/02/25 03:27:46;;;;;;;4.85;1.30;;;4.70;99.90;;;;;;4989962;28;20180;-79
2022/02/25 03:30:13;;;;;;;3.33;0.90;;;4.60;99.90;;;;;;4967970;28;20256;-79
2022/02/25 03:32:42;;;;;;;6.47;1.35;;;4.70;99.90;;;;;;4982712;28;20191;-79
2022/02/25 03:35:09;;;;;;;4.18;0.90;;;4.70;99.90;;;;;;4984863;28;20560;-80
2022/02/25 03:37:35;;;;;;;3.50;1.52;;;4.60;99.90;;;;;;4983713;28;20187;-79
2022/02/25 03:40:03;;;;;;;3.15;1.05;;;4.60;99.90;;;;;;4985054;28;20628;-79
2022/02/25 03:42:29;;;;;;;4.70;1.13;;;4.60;99.90;;;;;;4989732;28;20258;-78
2022/02/25 03:44:55;;;;;;;4.80;0.90;;;4.60;99.90;;;;;;4984481;28;20187;-78
2022/02/25 03:47:21;;;;;;;1.80;0.80;;;4.60;99.90;;;;;;4968193;28;20187;-78
2022/02/25 03:49:47;;;;;;;2.80;1.20;;;4.60;99.90;;;;;;4965773;28;20219;-79
2022/02/25 03:52:12;;;;;;;2.70;1.10;;;4.60;99.90;;;;;;4990234;28;20621;-79
2022/02/25 03:54:38;;;;;;;2.30;1.00;;;4.50;99.90;;;;;;4983509;28;20774;-79
2022/02/25 03:57:04;;;;;;;3.10;0.97;;;4.60;99.90;;;;;;4981532;28;20583;-78
2022/02/25 03:59:30;;;;;;;3.65;0.88;;;4.50;99.90;;;;;;4985317;28;20602;-78
2022/02/25 04:01:56;;;;;;;2.50;0.97;;;4.50;99.90;;;;;;4981203;28;20184;-78
2022/02/25 04:04:23;;;;;;;2.30;0.90;;;4.50;99.90;;;;;;4990504;28;20183;-78
2022/02/25 04:06:50;;;;;;;7.05;1.00;;;4.50;99.90;;;;;;4966103;28;20715;-78
2022/02/25 04:09:19;;;;;;;3.15;1.00;;;4.50;99.90;;;;;;4999332;28;20213;-78
2022/02/25 04:11:46;;;;;;;3.28;0.90;;;4.40;99.90;;;;;;4987242;28;20230;-79
2022/02/25 04:14:12;;;;;;;7.13;1.25;;;4.40;99.90;;;;;;4982284;28;20183;-78
2022/02/25 04:16:38;;;;;;;3.33;0.93;;;4.40;99.90;;;;;;4987426;28;20175;-78
2022/02/25 04:19:04;;;;;;;4.73;1.07;;;4.40;99.90;;;;;;4981557;28;20524;-78
2022/02/25 04:21:30;;;;;;;4.15;1.00;;;4.40;99.90;;;;;;4982980;28;20613;-78
2022/02/25 04:23:56;;;;;;;4.60;1.00;;;4.40;99.90;;;;;;4984241;28;20182;-79
2022/02/25 04:26:22;;;;;;;4.37;1.00;;;4.40;99.90;;;;;;4980997;28;20182;-78
2022/02/25 04:28:48;;;;;;;5.95;1.20;;;4.40;99.90;;;;;;4983737;28;20617;-78
2022/02/25 04:31:14;;;;;;;3.00;0.73;;;4.40;99.90;;;;;;4988821;28;20219;-78
2022/02/25 04:33:40;;;;;;;5.93;0.90;;;4.40;99.90;;;;;;4966599;28;20186;-78
2022/02/25 04:36:06;;;;;;;3.40;1.00;;;4.40;99.90;;;;;;4983050;28;20587;-78
2022/02/25 04:38:32;;;;;;;3.20;0.88;;;4.40;99.90;;;;;;4981454;28;20186;-78
2022/02/25 04:41:01;;;;;;;6.40;1.80;;;4.40;99.90;;;;;;4982323;28;20549;-78
2022/02/25 04:43:31;;;;;;;4.18;0.93;;;4.40;99.90;;;;;;4981169;28;20584;-78
2022/02/25 04:45:57;;;;;;;4.90;1.00;;;4.40;99.90;;;;;;4983479;28;20187;-78
2022/02/25 04:48:24;;;;;;;3.92;0.90;;;4.40;99.90;;;;;;4981491;28;20562;-78
2022/02/25 04:50:50;;;;;;;5.88;1.13;;;4.40;99.90;;;;;;4980689;28;20323;-78
2022/02/25 04:53:17;;;;;;;5.50;1.10;;;4.40;99.90;;;;;;4986310;28;20211;-78
2022/02/25 04:55:46;;;;;;;2.53;0.80;;;4.40;99.90;;;;;;4980042;28;20172;-79
2022/02/25 04:58:13;;;;;;;4.55;1.98;;;4.40;99.90;;;;;;4982615;28;20226;-79
2022/02/25 05:00:39;;;;;;;3.90;1.17;;;4.40;99.90;;;;;;4964718;28;20668;-79
2022/02/25 05:03:05;;;;;;;6.57;1.45;;;4.40;99.90;;;;;;4965210;28;20651;-79
2022/02/25 05:05:31;;;;;;;5.53;1.20;;;4.50;99.90;;;;;;4983600;28;20190;-79
2022/02/25 05:07:58;;;;;;;3.83;1.00;;;4.50;99.90;;;;;;4979925;28;20195;-79
2022/02/25 05:10:26;;;;;;;6.80;1.48;;;4.50;99.90;;;;;;4984301;28;20579;-80
2022/02/25 05:12:52;;;;;;;5.85;1.67;;;4.50;99.90;;;;;;4990146;28;20182;-79
2022/02/25 05:20:48;;;;;;;4.38;1.10;;;4.60;99.90;;;;;;4980284;28;20210;-79
2022/02/25 05:23:14;;;;;;;2.58;1.15;;;4.60;99.90;;;;;;4982432;28;20215;-80
2022/02/25 05:25:40;;;;;;;8.68;1.20;;;4.60;99.90;;;;;;4987790;28;20179;-80
2022/02/25 05:28:06;;;;;;;4.43;1.10;;;4.60;99.90;;;;;;4979973;28;20225;-79
2022/02/25 05:30:32;;;;;;;10.52;1.35;;;4.60;99.90;;;;;;4992381;28;20297;-79
2022/02/25 05:32:58;;;;;;;2.45;0.93;;;4.60;99.90;;;;;;4977453;28;20178;-78
2022/02/25 05:35:25;;;;;;;7.22;1.08;;;4.60;99.90;;;;;;4984186;28;20183;-79
2022/02/25 05:37:51;;;;;;;4.13;1.25;;;4.60;99.90;;;;;;4980078;28;20544;-79
2022/02/25 05:40:19;;;;;;;2.50;1.00;;;4.60;99.90;;;;;;4982603;28;20187;-79
2022/02/25 05:42:45;;;;;;;4.80;1.30;;;4.60;99.90;;;;;;4980757;28;20229;-79
2022/02/25 05:45:15;;;;;;;9.15;1.45;;;4.60;99.90;;;;;;4981711;28;20193;-79
2022/02/25 05:47:42;;;;;;;5.72;0.98;;;4.60;99.90;;;;;;4980433;28;20180;-79
2022/02/25 05:50:15;;;;;;;3.92;0.90;;;4.60;99.90;;;;;;4981421;28;20207;-79
2022/02/25 05:52:42;;;;;;;4.75;1.13;;;4.60;99.90;;;;;;4981605;28;20583;-79
2022/02/25 05:55:09;;;;;;;5.65;1.10;;;4.60;99.90;;;;;;4980978;28;20179;-78
2022/02/25 05:57:35;;;;;;;5.95;0.90;;;4.60;99.90;;;;;;4982715;28;20179;-78
2022/02/25 06:00:01;;;;;;;2.47;0.80;;;4.50;99.90;;;;;;4965557;28;20601;-79
2022/02/25 06:02:28;;;;;;;2.90;1.38;;;4.50;99.90;;;;;;4981649;28;20195;-79
2022/02/25 06:04:53;;;;;;;4.83;1.20;;;4.50;99.90;;;;;;4983089;28;20266;-79
2022/02/25 06:07:19;;;;;;;5.90;1.43;;;4.50;99.90;;;;;;4981848;28;20632;-79
2022/02/25 06:09:45;;;;;;;3.80;1.27;;;4.50;99.90;;;;;;4982521;28;20199;-79
2022/02/25 06:12:11;;;;;;;5.00;1.00;;;4.50;99.90;;;;;;4978903;28;20676;-79
2022/02/25 06:14:36;;;;;;;3.90;0.90;;;4.50;99.90;;;;;;4983432;28;21149;-79
2022/02/25 06:17:03;;;;;;;5.03;1.20;;;4.50;99.90;;;;;;4979525;28;20183;-79
2022/02/25 06:19:29;;;;;;;3.85;1.35;;;4.50;99.90;;;;;;4981052;28;20728;-79
2022/02/25 06:21:54;;;;;;;4.63;1.20;;;4.50;99.90;;;;;;4980298;28;20191;-79
2022/02/25 06:24:20;;;;;;;6.10;1.20;;;4.50;99.90;;;;;;4981333;28;20275;-79
2022/02/25 06:26:46;;;;;;;5.07;2.10;;;4.50;99.90;;;;;;4981652;28;20179;-79
2022/02/25 06:29:12;;;;;;;4.87;1.00;;;4.60;99.90;;;;;;4982270;28;20191;-79
2022/02/25 06:31:38;;;;;;;5.03;1.43;;;4.60;99.90;;;;;;4981951;28;20212;-79
2022/02/25 06:34:03;;;;;;;2.90;1.00;;;4.60;99.90;;;;;;4969032;28;20670;-79
2022/02/25 06:36:29;;;;;;;5.20;1.20;;;4.60;99.90;;;;;;4984363;28;20210;-79
2022/02/25 06:38:55;;;;;;;3.27;1.23;;;4.70;99.90;;;;;;4983481;28;20590;-79
2022/02/25 06:41:23;;;;;;;6.03;1.47;;;4.70;99.90;;;;;;4984527;28;20188;-79
2022/02/25 06:43:49;;;;;;;4.38;1.40;;;4.80;99.90;;;;;;4988657;28;20187;-79
2022/02/25 06:46:15;;;;;;;5.07;1.35;;;4.90;99.90;;;;;;4969828;28;20796;-79
2022/02/25 06:48:42;;;;;;;4.43;1.10;;;5.00;99.90;;;;;;4983744;28;20211;-79
2022/02/25 06:51:08;;;;;;;9.00;1.23;;;5.10;99.90;;;;;;4983604;28;20207;-80
2022/02/25 06:53:36;;;;;;;5.88;1.20;;;5.20;99.90;;;;;;4982957;28;20180;-79
2022/02/25 06:56:02;;;;;;;3.55;1.02;;;5.30;99.90;;;;;;4986023;28;20182;-78
2022/02/25 06:58:28;;;;;;;4.97;1.15;;;5.50;99.90;;;;;;4973876;28;20179;-79
2022/02/25 07:00:54;;;;;;;3.78;1.17;;;5.60;99.90;;;;;;4984604;28;20628;-79
2022/02/25 07:03:20;;;;;;;3.30;0.80;;;5.80;99.90;;;;;;4983777;28;20231;-79
2022/02/25 07:05:45;;;;;;;7.90;1.40;;;5.90;99.90;;;;;;4983978;28;20278;-79
2022/02/25 07:08:11;;;;;;;6.00;1.40;;;6.00;99.90;;;;;;4983289;28;20545;-79
2022/02/25 07:10:39;;;;;;;5.80;1.33;;;6.10;99.90;;;;;;4966155;28;20678;-79
2022/02/25 07:13:07;;;;;;;8.30;1.40;;;6.20;99.90;;;;;;4985070;28;20182;-79
2022/02/25 07:15:34;;;;;;;4.03;1.08;;;6.30;99.90;;;;;;4982809;28;20584;-79
2022/02/25 07:18:00;;;;;;;6.97;1.30;;;6.30;99.90;;;;;;4984570;28;20206;-79
2022/02/25 07:20:27;;;;;;;3.57;1.40;;;6.40;99.90;;;;;;4982743;28;20235;-79
2022/02/25 07:22:53;;;;;;;4.35;1.08;;;6.50;99.90;;;;;;5001377;28;20605;-79
2022/02/25 07:25:19;;;;;;;3.80;1.10;;;6.60;99.90;;;;;;4983221;28;20196;-79
2022/02/25 07:27:45;;;;;;;6.13;1.73;;;6.60;99.90;;;;;;4968606;28;21122;-79
2022/02/25 07:30:12;;;;;;;7.85;1.45;;;6.70;99.90;;;;;;4964763;28;20227;-78
2022/02/25 07:32:39;;;;;;;5.20;1.20;;;6.80;99.90;;;;;;4985531;28;20170;-79
2022/02/25 07:35:06;;;;;;;10.63;1.40;;;6.90;99.90;;;;;;4966901;28;20199;-79
2022/02/25 07:37:32;;;;;;;6.85;1.67;;;6.90;99.90;;;;;;4982821;28;20183;-79
2022/02/25 07:39:59;;;;;;;5.13;1.37;;;7.00;99.90;;;;;;4982601;28;20214;-79
2022/02/25 07:42:25;;;;;;;4.97;1.00;;;7.10;99.90;;;;;;4985880;28;20586;-79
2022/02/25 07:44:51;;;;;;;10.02;1.23;;;7.10;99.90;;;;;;4982458;28;20261;-79
2022/02/25 07:47:19;;;;;;;5.15;1.63;;;7.10;99.90;;;;;;4983889;28;20639;-79
2022/02/25 07:49:46;;;;;;;3.70;1.58;;;7.20;99.90;;;;;;4984111;28;20617;-81
2022/02/25 07:52:13;;;;;;;7.70;1.65;;;7.20;99.90;;;;;;4983638;28;20207;-82
2022/02/25 07:54:38;;;;;;;9.75;2.75;;;7.30;99.90;;;;;;4969771;28;20179;-82
2022/02/25 07:57:04;;;;;;;3.93;1.17;;;7.30;99.90;;;;;;4985064;28;20187;-82
2022/02/25 07:59:30;;;;;;;5.57;1.80;;;7.40;99.90;;;;;;4990449;28;20629;-82
2022/02/25 08:01:56;;;;;;;3.75;1.50;;;7.40;99.90;;;;;;4984568;28;21093;-82
2022/02/25 08:04:22;;;;;;;6.57;1.70;;;7.40;99.90;;;;;;4968621;28;20190;-81
2022/02/25 08:06:48;;;;;;;10.10;1.83;;;7.50;99.90;;;;;;4970539;28;20525;-82
2022/02/25 08:09:14;;;;;;;10.97;1.60;;;7.60;99.90;;;;;;4989074;28;20186;-81
2022/02/25 08:11:40;;;;;;;7.43;1.35;;;7.60;99.90;;;;;;4982492;28;20204;-81
2022/02/25 08:14:06;;;;;;;6.88;1.10;;;7.70;99.90;;;;;;4984913;28;20179;-82
2022/02/25 08:16:32;;;;;;;6.15;1.63;;;7.70;99.90;;;;;;4982865;28;20183;-82
2022/02/25 08:18:58;;;;;;;7.27;1.60;;;7.70;99.90;;;;;;4986739;28;20184;-82
2022/02/25 08:21:24;;;;;;;7.13;1.90;;;7.80;99.90;;;;;;4985248;28;20176;-79
2022/02/25 08:23:50;;;;;;;6.13;1.97;;;7.80;99.90;;;;;;4982741;28;20184;-80
2022/02/25 08:26:15;;;;;;;8.17;1.60;;;7.80;99.90;;;;;;4981385;28;20234;-79
2022/02/25 08:28:41;;;;;;;6.37;1.37;;;7.80;99.90;;;;;;4984985;28;20182;-81
2022/02/25 08:31:11;;;;;;;4.70;1.30;;;7.80;99.90;;;;;;4986290;28;20257;-80
2022/02/25 08:33:41;;;;;;;7.03;1.55;;;7.90;99.90;;;;;;4972147;28;20175;-80
2022/02/25 08:36:07;;;;;;;6.20;1.25;;;7.90;99.90;;;;;;4999776;28;20171;-80
2022/02/25 08:38:33;;;;;;;4.95;1.75;;;7.90;99.90;;;;;;5003012;28;20237;-81
2022/02/25 08:41:00;;;;;;;6.97;2.03;;;7.90;99.90;;;;;;4996798;28;20203;-81
2022/02/25 08:43:26;;;;;;;9.48;1.83;;;7.90;99.90;;;;;;4993602;28;20188;-80
2022/02/25 08:45:53;;;;;;;8.37;1.23;;;7.90;99.90;;;;;;4992960;28;20195;-81
2022/02/25 08:48:19;;;;;;;5.07;1.83;;;8.00;99.90;;;;;;4990130;28;20574;-81
2022/02/25 08:50:46;;;;;;;7.70;1.88;;;8.00;99.90;;;;;;5009751;28;20211;-81
2022/02/25 08:53:11;;;;;;;5.30;1.30;;;8.00;99.90;;;;;;4989021;28;20171;-81
2022/02/25 08:55:37;;;;;;;7.87;1.37;;;8.00;99.90;;;;;;4998455;28;20617;-81
2022/02/25 08:58:03;;;;;;;12.00;1.60;;;8.10;99.90;;;;;;4999391;28;20226;-81
2022/02/25 09:00:30;;;;;;;5.03;1.63;;;8.10;99.90;;;;;;4994596;28;20203;-81
2022/02/25 09:02:56;;;;;;;5.07;1.38;;;8.10;99.90;;;;;;4994759;28;20202;-81
2022/02/25 09:05:23;;;;;;;8.45;1.33;;;8.10;99.90;;;;;;4998590;28;20185;-81
2022/02/25 09:07:50;;;;;;;7.47;1.55;;;8.10;99.90;;;;;;4978034;28;20171;-81
2022/02/25 09:10:17;;;;;;;7.65;1.70;;;8.10;99.90;;;;;;4997069;28;20199;-81
2022/02/25 09:12:44;;;;;;;7.93;2.05;;;8.20;99.90;;;;;;4998610;28;20189;-81
2022/02/25 09:15:13;;;;;;;6.03;1.33;;;8.20;99.90;;;;;;4981417;28;20179;-81
2022/02/25 09:17:39;;;;;;;4.82;1.90;;;8.20;99.90;;;;;;4993808;28;20171;-81
2022/02/25 09:20:07;;;;;;;12.27;2.10;;;8.20;99.90;;;;;;4986754;28;20258;-81
2022/02/25 09:22:33;;;;;;;6.18;1.80;;;8.20;99.90;;;;;;4986504;28;20664;-82
2022/02/25 09:24:59;;;;;;;6.35;1.83;;;8.20;99.90;;;;;;4977231;28;20198;-82
2022/02/25 09:27:27;;;;;;;6.18;1.42;;;8.20;99.90;;;;;;4983926;28;20535;-81
2022/02/25 09:29:53;;;;;;;4.97;1.48;;;8.20;99.90;;;;;;4982202;28;20200;-84
2022/02/25 09:32:19;;;;;;;4.28;2.10;;;8.20;99.90;;;;;;4978173;28;20202;-84
2022/02/25 09:34:46;;;;;;;6.10;2.13;;;8.20;99.90;;;;;;4971464;28;20180;-84
2022/02/25 09:37:11;;;;;;;7.85;1.63;;;8.30;99.90;;;;;;4977428;28;20265;-83
2022/02/25 09:39:37;;;;;;;10.00;1.57;;;8.30;99.90;;;;;;4976083;28;20349;-83
2022/02/25 09:42:05;;;;;;;8.90;1.50;;;8.40;99.90;;;;;;4988639;28;20179;-83
2022/02/25 09:44:33;;;;;;;12.00;2.50;;;8.50;99.90;;;;;;4986590;28;20187;-83
2022/02/25 09:46:59;;;;;;;8.63;1.80;;;8.50;99.90;;;;;;4988752;28;20178;-83
2022/02/25 09:49:25;;;;;;;7.20;1.87;;;8.60;99.90;;;;;;4991150;28;20207;-83
2022/02/25 09:51:52;;;;;;;5.00;2.00;;;8.60;99.90;;;;;;4998999;28;20298;-83
2022/02/25 09:54:19;;;;;;;9.35;2.47;;;8.60;99.90;;;;;;4985318;28;20581;-83
2022/02/25 09:56:49;;;;;;;7.75;2.50;;;8.60;99.90;;;;;;4966135;28;20233;-83
2022/02/25 09:59:18;;;;;;;6.53;2.00;;;8.60;99.90;;;;;;4989321;28;20184;-83
2022/02/25 10:01:45;;;;;;;7.22;1.63;;;8.70;99.90;;;;;;4977418;28;20841;-83
2022/02/25 10:04:20;;;;;;;11.60;1.90;;;8.80;99.90;;;;;;4986363;28;20207;-83
2022/02/25 10:06:46;;;;;;;8.38;2.25;;;8.90;99.90;;;;;;4991491;28;20643;-83
2022/02/25 10:09:32;;;;;;;6.88;1.90;;;9.00;99.90;;;;;;4994321;28;20181;-83
2022/02/25 10:12:09;;;;;;;7.25;2.25;;;9.10;99.90;;;;;;4994173;28;20195;-83
2022/02/25 10:14:48;;;;;;;7.60;1.92;;;9.20;99.90;;;;;;4971199;28;20225;-83
2022/02/25 10:17:18;;;;;;;8.27;2.33;;;9.20;99.90;;;;;;4986709;28;20175;-84
2022/02/25 10:19:53;;;;;;;12.70;4.00;;;9.30;99.90;;;;;;4986894;28;20254;-83
2022/02/25 10:22:21;;;;;;;7.03;2.00;;;9.30;99.90;;;;;;4990074;28;20178;-83
2022/02/25 10:25:11;;;;;;;12.27;3.78;;;9.30;99.90;;;;;;4984316;28;20653;-85
2022/02/25 10:27:45;;;;;;;8.50;2.42;;;9.40;99.90;;;;;;4980280;28;20203;-83
2022/02/25 10:30:17;;;;;;;9.27;3.83;;;9.40;99.90;;;;;;4991957;28;20690;-83
2022/02/25 10:32:51;;;;;;;9.15;2.30;;;9.60;99.90;;;;;;4991601;28;20198;-83
2022/02/25 10:35:25;;;;;;;12.00;2.67;;;9.80;99.90;;;;;;4989039;28;20175;-83
2022/02/25 10:37:54;;;;;;;8.25;2.95;;;10.00;99.90;;;;;;4985433;28;20171;-83
2022/02/25 10:40:20;;;;;;;13.18;2.38;;;10.60;99.90;;;;;;4988325;28;20675;-83
2022/02/25 10:42:46;;;;;;;6.07;2.50;;;11.20;99.90;;;;;;4983674;28;20505;-76
2022/02/25 10:45:12;;;;;;;7.27;2.40;;;11.80;99.90;;;;;;4986168;28;20205;-78
2022/02/25 10:47:43;;;;;;;6.73;2.27;;;12.50;99.90;;;;;;4983346;28;20319;-79
2022/02/25 10:50:15;;;;;;;7.73;2.43;;;13.10;99.90;;;;;;4985369;28;20753;-81
2022/02/25 10:52:48;;;;;;;7.80;1.97;;;13.90;99.90;;;;;;4983763;28;20637;-81
2022/02/25 10:55:26;;;;;;;10.87;2.33;;;14.40;99.90;;;;;;4992256;28;20637;-81
2022/02/25 10:57:54;;;;;;;4.30;1.70;;;14.50;99.90;;;;;;4987226;28;20586;-81
2022/02/25 11:00:21;;;;;;;11.17;3.13;;;14.60;99.90;;;;;;4989608;28;21038;-79
2022/02/25 11:02:49;;;;;;;9.27;1.80;;;14.60;99.90;;;;;;4990538;28;20702;-77
2022/02/25 11:05:22;;;;;;;4.17;1.77;;;14.50;99.90;;;;;;4985867;28;20595;-77
2022/02/25 11:07:54;;;;;;;4.33;1.30;;;14.50;99.90;;;;;;4985255;28;20937;-78
2022/02/25 11:10:24;;;;;;;12.17;1.60;;;14.40;99.90;;;;;;4975192;28;21014;-77
2022/02/25 11:12:52;;;;;;;10.00;2.28;;;14.20;99.90;;;;;;4982976;28;20598;-77
2022/02/25 11:15:21;;;;;;;7.63;2.05;;;13.90;99.90;;;;;;4977501;28;20206;-77
2022/02/25 11:17:48;;;;;;;6.15;1.45;;;13.60;99.90;;;;;;4993508;28;20834;-78
2022/02/25 11:20:22;;;;;;;10.25;3.50;;;13.30;99.90;;;;;;4967866;28;20202;-79
2022/02/25 11:22:54;;;;;;;8.30;2.10;;;13.00;99.90;;;;;;4985386;28;20685;-79
2022/02/25 11:25:20;;;;;;;6.43;3.00;;;12.70;99.90;;;;;;4985837;28;20647;-81
2022/02/25 11:27:46;;;;;;;6.22;2.03;;;12.60;99.90;;;;;;4982744;28;20279;-81
2022/02/25 11:30:38;;;;;;;8.75;3.30;;;12.40;99.90;;;;;;4985466;28;20191;-79
2022/02/25 11:33:09;;;;;;;5.60;1.92;;;12.20;99.90;;;;;;4987853;28;20279;-78
2022/02/25 11:35:47;;;;;;;9.00;3.10;;;12.00;99.90;;;;;;4987141;28;20203;-79
2022/02/25 11:38:14;;;;;;;8.90;2.60;;;11.90;99.90;;;;;;4985954;28;20652;-79
2022/02/25 11:40:52;;;;;;;8.63;2.65;;;11.80;99.90;;;;;;4982388;28;20213;-78
2022/02/25 11:43:42;;;;;;;5.40;1.73;;;11.80;99.90;;;;;;4986790;28;20210;-77
2022/02/25 11:46:27;;;;;;;8.27;2.10;;;11.80;99.90;;;;;;4984531;28;20786;-77
2022/02/25 11:49:01;;;;;;;6.28;2.08;;;11.80;99.90;;;;;;4979797;28;20179;-77
2022/02/25 11:51:37;;;;;;;10.35;2.80;;;11.70;99.90;;;;;;5000316;28;20219;-77
2022/02/25 11:54:21;;;;;;;10.13;2.17;;;11.60;99.90;;;;;;4985300;28;20214;-77
2022/02/25 11:56:56;;;;;;;8.60;2.88;;;11.50;99.90;;;;;;4999686;28;20227;-77
2022/02/25 11:59:42;;;;;;;9.50;2.50;;;11.40;99.90;;;;;;4983926;28;20255;-76
2022/02/25 12:02:19;;;;;;;7.80;2.25;;;11.30;99.90;;;;;;4974314;28;20193;-77
2022/02/25 12:05:05;;;;;;;8.30;2.83;;;11.30;99.90;;;;;;4982956;28;20183;-77
2022/02/25 12:07:38;;;;;;;13.10;3.03;;;11.40;99.90;;;;;;4997492;28;20183;-77
2022/02/25 12:10:24;;;;;;;11.02;2.50;;;11.50;99.90;;;;;;4982548;28;20198;-78
2022/02/25 12:12:56;;;;;;;13.75;3.05;;;11.50;99.90;;;;;;4989763;28;20179;-78
2022/02/25 12:15:33;;;;;;;7.13;2.10;;;11.70;99.90;;;;;;4973195;28;20641;-78
2022/02/25 12:18:04;;;;;;;9.68;2.70;;;11.90;99.90;;;;;;4984541;28;20178;-83
2022/02/25 12:20:44;;;;;;;5.80;1.90;;;11.90;99.90;;;;;;4986677;28;20318;-82
2022/02/25 12:23:20;;;;;;;8.65;2.25;;;12.00;99.90;;;;;;4985068;28;20226;-82
2022/02/25 12:25:55;;;;;;;9.88;1.95;;;12.10;99.90;;;;;;4988950;28;20193;-79
2022/02/25 12:28:26;;;;;;;7.70;2.50;;;12.10;99.90;;;;;;4995703;28;20166;-78
2022/02/25 12:31:13;;;;;;;6.70;2.80;;;12.20;99.90;;;;;;4984014;28;20214;-77
2022/02/25 12:33:42;;;;;;;7.00;2.63;;;12.30;99.90;;;;;;4979550;28;20183;-77
2022/02/25 12:36:22;;;;;;;9.13;3.08;;;12.40;99.90;;;;;;4984034;28;20172;-79
2022/02/25 12:39:11;;;;;;;8.77;2.15;;;12.60;99.90;;;;;;4988428;28;20246;-79
2022/02/25 12:41:56;;;;;;;8.77;1.95;;;12.80;99.90;;;;;;4981615;28;20182;-79
2022/02/25 12:44:45;;;;;;;5.20;1.67;;;13.00;99.90;;;;;;4983004;28;20186;-79
2022/02/25 12:47:17;;;;;;;12.45;2.97;;;13.20;99.90;;;;;;5066432;28;20697;-78
2022/02/25 12:49:43;;;;;;;5.60;1.90;;;13.30;99.90;;;;;;5048959;28;20265;-77
2022/02/25 12:52:11;;;;;;;9.40;2.17;;;13.30;99.90;;;;;;5062916;28;20199;-77
2022/02/25 12:54:39;;;;;;;9.70;2.53;;;13.20;99.90;;;;;;5052549;28;20198;-78
2022/02/25 12:57:08;;;;;;;12.88;3.33;;;13.00;99.90;;;;;;5053119;28;20184;-77
2022/02/25 12:59:39;;;;;;;6.70;3.30;;;12.70;99.90;;;;;;5036615;28;20234;-77
2022/02/25 13:02:08;;;;;;;11.50;3.90;;;12.50;99.90;;;;;;5058203;28;20199;-78
2022/02/25 13:04:46;;;;;;;11.90;3.70;;;12.20;99.90;;;;;;5056527;28;20256;-78